sensor_id;sensor_type;location;lat;lon;timestamp;pressure;altitude;pressure_sealevel;temperature;humidity
42669;BME280;29384;42.028;21.388;2022-08-01T00:00:56;98360.84;;;22.73;53.36
42669;BME280;29384;42.028;21.388;2022-08-01T00:03:22;98359.28;;;22.72;53.87
42669;BME280;29384;42.028;21.388;2022-08-01T00:05:47;98370.56;;;22.56;54.15
42669;BME280;29384;42.028;21.388;2022-08-01T00:08:13;98375.00;;;22.52;54.00
42669;BME280;29384;42.028;21.388;2022-08-01T00:16:25;98370.19;;;22.46;54.85
42669;BME280;29384;42.028;21.388;2022-08-01T00:18:51;98372.72;;;22.42;54.48
42669;BME280;29384;42.028;21.388;2022-08-01T00:21:17;98369.03;;;22.34;54.79
42669;BME280;29384;42.028;21.388;2022-08-01T00:23:42;98361.03;;;22.34;54.69
42669;BME280;29384;42.028;21.388;2022-08-01T00:26:11;98363.97;;;22.41;55.75
42669;BME280;29384;42.028;21.388;2022-08-01T00:28:37;98356.97;;;22.37;56.04
42669;BME280;29384;42.028;21.388;2022-08-01T00:31:02;98359.94;;;22.35;55.80
42669;BME280;29384;42.028;21.388;2022-08-01T00:33:28;98362.16;;;22.33;55.43
42669;BME280;29384;42.028;21.388;2022-08-01T00:35:53;98342.59;;;22.29;55.51
42669;BME280;29384;42.028;21.388;2022-08-01T00:38:19;98355.38;;;22.36;55.41
42669;BME280;29384;42.028;21.388;2022-08-01T00:40:44;98361.94;;;22.38;54.87
42669;BME280;29384;42.028;21.388;2022-08-01T00:46:32;98362.16;;;22.33;55.38
42669;BME280;29384;42.028;21.388;2022-08-01T00:48:59;98365.72;;;22.37;57.59
42669;BME280;29384;42.028;21.388;2022-08-01T00:51:25;98366.00;;;22.24;57.73
42669;BME280;29384;42.028;21.388;2022-08-01T00:53:51;98359.88;;;22.23;57.39
42669;BME280;29384;42.028;21.388;2022-08-01T00:56:19;98372.44;;;22.23;56.86
42669;BME280;29384;42.028;21.388;2022-08-01T00:58:45;98367.38;;;22.00;57.46
42669;BME280;29384;42.028;21.388;2022-08-01T01:01:10;98367.31;;;21.88;57.73
42669;BME280;29384;42.028;21.388;2022-08-01T01:03:36;98367.31;;;21.88;59.38
42669;BME280;29384;42.028;21.388;2022-08-01T01:06:25;98362.25;;;21.95;59.55
42669;BME280;29384;42.028;21.388;2022-08-01T01:09:05;98363.34;;;21.94;59.40
42669;BME280;29384;42.028;21.388;2022-08-01T01:11:49;98364.97;;;21.86;60.27
42669;BME280;29384;42.028;21.388;2022-08-01T01:15:02;98365.47;;;21.80;58.55
42669;BME280;29384;42.028;21.388;2022-08-01T01:17:41;98362.31;;;21.86;60.64
42669;BME280;29384;42.028;21.388;2022-08-01T01:20:08;98368.66;;;21.73;58.77
42669;BME280;29384;42.028;21.388;2022-08-01T01:22:50;98367.16;;;21.63;58.31
42669;BME280;29384;42.028;21.388;2022-08-01T01:25:28;98359.75;;;21.69;59.95
42669;BME280;29384;42.028;21.388;2022-08-01T01:28:12;98362.88;;;21.71;60.45
42669;BME280;29384;42.028;21.388;2022-08-01T01:30:43;98358.81;;;21.74;59.40
42669;BME280;29384;42.028;21.388;2022-08-01T01:33:11;98359.25;;;21.76;59.53
42669;BME280;29384;42.028;21.388;2022-08-01T01:35:49;98349.75;;;21.66;59.47
42669;BME280;29384;42.028;21.388;2022-08-01T01:38:20;98350.31;;;21.51;59.67
42669;BME280;29384;42.028;21.388;2022-08-01T01:40:47;98358.16;;;21.47;58.93
42669;BME280;29384;42.028;21.388;2022-08-01T01:43:15;98373.53;;;21.33;58.01
42669;BME280;29384;42.028;21.388;2022-08-01T01:45:42;98369.81;;;21.16;58.26
42669;BME280;29384;42.028;21.388;2022-08-01T01:48:10;98366.69;;;21.23;59.86
42669;BME280;29384;42.028;21.388;2022-08-01T01:50:39;98370.63;;;21.17;59.86
42669;BME280;29384;42.028;21.388;2022-08-01T01:53:06;98360.47;;;21.10;59.73
42669;BME280;29384;42.028;21.388;2022-08-01T01:55:36;98371.91;;;21.11;60.61
42669;BME280;29384;42.028;21.388;2022-08-01T01:58:05;98370.69;;;20.99;60.07
42669;BME280;29384;42.028;21.388;2022-08-01T02:00:32;98362.53;;;21.05;59.69
42669;BME280;29384;42.028;21.388;2022-08-01T02:03:01;98370.34;;;21.01;60.19
42669;BME280;29384;42.028;21.388;2022-08-01T02:05:27;98370.53;;;20.96;60.28
42669;BME280;29384;42.028;21.388;2022-08-01T02:07:54;98369.28;;;20.93;61.52
42669;BME280;29384;42.028;21.388;2022-08-01T02:10:21;98368.03;;;20.91;62.24
42669;BME280;29384;42.028;21.388;2022-08-01T02:12:48;98372.91;;;20.80;61.64
42669;BME280;29384;42.028;21.388;2022-08-01T02:15:16;98373.72;;;20.72;62.28
42669;BME280;29384;42.028;21.388;2022-08-01T02:17:47;98370.41;;;20.49;63.35
42669;BME280;29384;42.028;21.388;2022-08-01T02:20:14;98371.72;;;20.51;62.96
42669;BME280;29384;42.028;21.388;2022-08-01T02:22:53;98372.00;;;20.59;62.49
42669;BME280;29384;42.028;21.388;2022-08-01T02:25:25;98368.56;;;20.49;61.92
42669;BME280;29384;42.028;21.388;2022-08-01T02:27:58;98372.81;;;20.50;61.87
42669;BME280;29384;42.028;21.388;2022-08-01T02:30:32;98373.72;;;20.37;62.89
42669;BME280;29384;42.028;21.388;2022-08-01T02:33:15;98372.78;;;20.33;63.92
42669;BME280;29384;42.028;21.388;2022-08-01T02:35:43;98376.53;;;20.32;63.41
42669;BME280;29384;42.028;21.388;2022-08-01T02:38:12;98374.03;;;20.27;61.80
42669;BME280;29384;42.028;21.388;2022-08-01T02:40:42;98374.66;;;20.15;62.71
42669;BME280;29384;42.028;21.388;2022-08-01T02:43:10;98371.97;;;20.06;63.16
42669;BME280;29384;42.028;21.388;2022-08-01T02:45:42;98367.94;;;20.09;63.22
42669;BME280;29384;42.028;21.388;2022-08-01T02:48:12;98371.38;;;20.10;63.64
42669;BME280;29384;42.028;21.388;2022-08-01T02:50:42;98369.94;;;20.03;63.54
42669;BME280;29384;42.028;21.388;2022-08-01T02:53:11;98371.03;;;19.85;63.34
42669;BME280;29384;42.028;21.388;2022-08-01T02:55:42;98370.25;;;19.85;63.48
42669;BME280;29384;42.028;21.388;2022-08-01T02:58:09;98366.00;;;19.75;63.79
42669;BME280;29384;42.028;21.388;2022-08-01T03:00:36;98356.91;;;19.58;63.85
42669;BME280;29384;42.028;21.388;2022-08-01T03:03:05;98368.97;;;19.82;63.81
42669;BME280;29384;42.028;21.388;2022-08-01T03:05:32;98372.72;;;19.72;64.58
42669;BME280;29384;42.028;21.388;2022-08-01T03:08:00;98373.63;;;19.68;64.41
42669;BME280;29384;42.028;21.388;2022-08-01T03:10:29;98374.91;;;19.70;65.16
42669;BME280;29384;42.028;21.388;2022-08-01T03:12:57;98372.03;;;19.58;64.79
42669;BME280;29384;42.028;21.388;2022-08-01T03:15:26;98380.72;;;19.50;65.34
42669;BME280;29384;42.028;21.388;2022-08-01T03:17:53;98386.97;;;19.45;65.25
42669;BME280;29384;42.028;21.388;2022-08-01T03:20:21;98382.41;;;19.37;65.95
42669;BME280;29384;42.028;21.388;2022-08-01T03:22:50;98383.47;;;19.27;66.06
42669;BME280;29384;42.028;21.388;2022-08-01T03:25:18;98372.47;;;19.11;65.96
42669;BME280;29384;42.028;21.388;2022-08-01T03:27:47;98387.22;;;19.26;65.50
42669;BME280;29384;42.028;21.388;2022-08-01T03:30:15;98391.56;;;19.22;65.99
42669;BME280;29384;42.028;21.388;2022-08-01T03:32:41;98397.75;;;19.18;66.20
42669;BME280;29384;42.028;21.388;2022-08-01T03:35:07;98395.59;;;19.20;65.77
42669;BME280;29384;42.028;21.388;2022-08-01T03:37:41;98392.44;;;19.09;65.73
42669;BME280;29384;42.028;21.388;2022-08-01T03:40:12;98399.78;;;19.12;65.17
42669;BME280;29384;42.028;21.388;2022-08-01T03:42:44;98395.09;;;19.18;66.07
42669;BME280;29384;42.028;21.388;2022-08-01T03:45:19;98401.19;;;19.18;65.76
42669;BME280;29384;42.028;21.388;2022-08-01T03:47:46;98399.88;;;19.29;65.25
42669;BME280;29384;42.028;21.388;2022-08-01T03:50:13;98397.66;;;19.23;65.53
42669;BME280;29384;42.028;21.388;2022-08-01T03:52:41;98403.91;;;19.27;65.20
42669;BME280;29384;42.028;21.388;2022-08-01T03:55:09;98401.25;;;19.27;65.66
42669;BME280;29384;42.028;21.388;2022-08-01T03:57:36;98398.97;;;19.43;64.82
42669;BME280;29384;42.028;21.388;2022-08-01T04:00:04;98363.63;;;19.25;64.38
42669;BME280;29384;42.028;21.388;2022-08-01T04:02:32;98399.34;;;19.58;64.71
42669;BME280;29384;42.028;21.388;2022-08-01T04:04:58;98396.13;;;19.70;64.38
42669;BME280;29384;42.028;21.388;2022-08-01T04:07:26;98403.34;;;19.87;64.05
42669;BME280;29384;42.028;21.388;2022-08-01T04:09:52;98407.91;;;20.04;62.83
42669;BME280;29384;42.028;21.388;2022-08-01T04:12:18;98403.69;;;20.20;62.76
42669;BME280;29384;42.028;21.388;2022-08-01T04:14:44;98421.03;;;20.35;62.46
42669;BME280;29384;42.028;21.388;2022-08-01T04:17:09;98416.38;;;20.49;62.11
42669;BME280;29384;42.028;21.388;2022-08-01T04:19:35;98419.34;;;20.65;61.64
42669;BME280;29384;42.028;21.388;2022-08-01T04:22:01;98420.00;;;20.71;61.80
42669;BME280;29384;42.028;21.388;2022-08-01T04:24:29;98412.78;;;20.89;61.55
42669;BME280;29384;42.028;21.388;2022-08-01T04:26:56;98415.69;;;21.05;61.36
42669;BME280;29384;42.028;21.388;2022-08-01T04:29:24;98422.22;;;21.24;60.51
42669;BME280;29384;42.028;21.388;2022-08-01T04:31:53;98423.88;;;21.46;59.89
42669;BME280;29384;42.028;21.388;2022-08-01T04:34:21;98405.88;;;21.52;60.44
42669;BME280;29384;42.028;21.388;2022-08-01T04:36:49;98405.88;;;21.82;58.45
42669;BME280;29384;42.028;21.388;2022-08-01T04:39:16;98407.59;;;22.07;57.26
42669;BME280;29384;42.028;21.388;2022-08-01T04:41:44;98424.50;;;22.32;56.07
42669;BME280;29384;42.028;21.388;2022-08-01T04:47:34;98423.47;;;22.66;56.98
42669;BME280;29384;42.028;21.388;2022-08-01T04:50:00;98431.59;;;23.03;55.96
42669;BME280;29384;42.028;21.388;2022-08-01T04:52:33;98429.97;;;23.11;53.88
42669;BME280;29384;42.028;21.388;2022-08-01T04:54:59;98428.25;;;23.40;53.12
42669;BME280;29384;42.028;21.388;2022-08-01T04:57:25;98422.44;;;23.50;52.49
42669;BME280;29384;42.028;21.388;2022-08-01T04:59:50;98419.25;;;23.69;51.78
42669;BME280;29384;42.028;21.388;2022-08-01T05:02:22;98427.78;;;23.99;51.89
42669;BME280;29384;42.028;21.388;2022-08-01T05:04:47;98432.19;;;24.31;50.27
42669;BME280;29384;42.028;21.388;2022-08-01T05:07:13;98425.28;;;24.43;49.48
42669;BME280;29384;42.028;21.388;2022-08-01T05:09:40;98426.53;;;24.61;48.62
42669;BME280;29384;42.028;21.388;2022-08-01T05:12:11;98428.19;;;24.66;47.28
42669;BME280;29384;42.028;21.388;2022-08-01T05:14:37;98429.03;;;24.98;47.25
42669;BME280;29384;42.028;21.388;2022-08-01T05:17:05;98432.34;;;25.07;47.24
42669;BME280;29384;42.028;21.388;2022-08-01T05:19:34;98434.63;;;25.21;47.88
42669;BME280;29384;42.028;21.388;2022-08-01T05:22:01;98430.78;;;25.06;47.19
42669;BME280;29384;42.028;21.388;2022-08-01T05:24:36;98418.31;;;25.26;47.91
42669;BME280;29384;42.028;21.388;2022-08-01T05:27:03;98423.84;;;25.33;47.25
42669;BME280;29384;42.028;21.388;2022-08-01T05:32:50;98433.84;;;26.19;45.83
42669;BME280;29384;42.028;21.388;2022-08-01T05:35:15;98435.78;;;26.18;43.41
42669;BME280;29384;42.028;21.388;2022-08-01T05:37:41;98429.97;;;26.36;43.27
42669;BME280;29384;42.028;21.388;2022-08-01T05:40:06;98437.56;;;26.69;42.41
42669;BME280;29384;42.028;21.388;2022-08-01T05:42:32;98434.97;;;26.96;42.31
42669;BME280;29384;42.028;21.388;2022-08-01T05:44:58;98436.69;;;27.04;41.12
42669;BME280;29384;42.028;21.388;2022-08-01T05:47:23;98434.88;;;27.11;42.29
42669;BME280;29384;42.028;21.388;2022-08-01T05:49:49;98437.59;;;27.34;41.98
42669;BME280;29384;42.028;21.388;2022-08-01T05:52:14;98433.78;;;27.12;41.27
42669;BME280;29384;42.028;21.388;2022-08-01T05:54:40;98439.94;;;27.36;39.75
42669;BME280;29384;42.028;21.388;2022-08-01T05:57:05;98431.56;;;27.64;39.25
42669;BME280;29384;42.028;21.388;2022-08-01T06:02:52;98439.41;;;27.76;38.06
42669;BME280;29384;42.028;21.388;2022-08-01T06:05:18;98437.59;;;27.84;38.30
42669;BME280;29384;42.028;21.388;2022-08-01T06:07:43;98436.78;;;28.06;37.32
42669;BME280;29384;42.028;21.388;2022-08-01T06:10:09;98438.19;;;28.27;37.77
42669;BME280;29384;42.028;21.388;2022-08-01T06:12:35;98433.06;;;28.45;37.89
42669;BME280;29384;42.028;21.388;2022-08-01T06:15:02;98439.72;;;28.92;36.22
42669;BME280;29384;42.028;21.388;2022-08-01T06:17:28;98427.41;;;28.53;36.23
42669;BME280;29384;42.028;21.388;2022-08-01T06:19:53;98436.66;;;28.56;36.36
42669;BME280;29384;42.028;21.388;2022-08-01T06:22:19;98431.59;;;28.51;36.06
42669;BME280;29384;42.028;21.388;2022-08-01T06:24:44;98428.31;;;28.68;38.00
42669;BME280;29384;42.028;21.388;2022-08-01T06:27:10;98435.84;;;28.89;36.09
42669;BME280;29384;42.028;21.388;2022-08-01T06:32:57;98433.75;;;29.53;35.00
42669;BME280;29384;42.028;21.388;2022-08-01T06:35:25;98435.56;;;29.90;32.53
42669;BME280;29384;42.028;21.388;2022-08-01T06:37:51;98431.47;;;30.14;33.58
42669;BME280;29384;42.028;21.388;2022-08-01T06:40:16;98426.31;;;29.88;33.62
42669;BME280;29384;42.028;21.388;2022-08-01T06:42:43;98423.22;;;29.89;33.79
42669;BME280;29384;42.028;21.388;2022-08-01T06:45:12;98427.09;;;29.92;32.28
42669;BME280;29384;42.028;21.388;2022-08-01T06:47:39;98416.38;;;30.02;33.12
42669;BME280;29384;42.028;21.388;2022-08-01T06:50:06;98420.13;;;29.84;31.62
42669;BME280;29384;42.028;21.388;2022-08-01T06:52:31;98418.28;;;29.98;32.09
42669;BME280;29384;42.028;21.388;2022-08-01T06:54:57;98419.44;;;29.97;32.74
42669;BME280;29384;42.028;21.388;2022-08-01T06:57:23;98415.00;;;29.68;33.13
42669;BME280;29384;42.028;21.388;2022-08-01T07:03:10;98402.09;;;29.98;32.13
42669;BME280;29384;42.028;21.388;2022-08-01T07:05:36;98405.84;;;30.63;30.62
42669;BME280;29384;42.028;21.388;2022-08-01T07:08:01;98408.22;;;30.76;32.24
42669;BME280;29384;42.028;21.388;2022-08-01T07:10:26;98407.84;;;30.99;29.77
42669;BME280;29384;42.028;21.388;2022-08-01T07:12:52;98406.72;;;31.25;29.81
42669;BME280;29384;42.028;21.388;2022-08-01T07:15:17;98407.50;;;31.47;29.46
42669;BME280;29384;42.028;21.388;2022-08-01T07:17:45;98404.78;;;31.18;29.52
42669;BME280;29384;42.028;21.388;2022-08-01T07:20:12;98399.41;;;31.47;29.40
42669;BME280;29384;42.028;21.388;2022-08-01T07:22:37;98396.69;;;31.18;30.06
42669;BME280;29384;42.028;21.388;2022-08-01T07:25:06;98393.97;;;30.97;29.53
42669;BME280;29384;42.028;21.388;2022-08-01T07:27:33;98402.13;;;31.32;28.88
42669;BME280;29384;42.028;21.388;2022-08-01T07:33:20;98400.53;;;31.71;28.54
42669;BME280;29384;42.028;21.388;2022-08-01T07:35:46;98407.06;;;31.73;28.51
42669;BME280;29384;42.028;21.388;2022-08-01T07:38:11;98405.91;;;31.96;28.53
42669;BME280;29384;42.028;21.388;2022-08-01T07:40:37;98395.84;;;31.96;28.89
42669;BME280;29384;42.028;21.388;2022-08-01T07:43:02;98397.78;;;31.99;27.75
42669;BME280;29384;42.028;21.388;2022-08-01T07:45:28;98395.03;;;32.10;27.71
42669;BME280;29384;42.028;21.388;2022-08-01T07:47:53;98398.06;;;32.19;28.03
42669;BME280;29384;42.028;21.388;2022-08-01T07:50:19;98392.66;;;32.26;27.15
42669;BME280;29384;42.028;21.388;2022-08-01T07:52:44;98392.66;;;32.26;27.41
42669;BME280;29384;42.028;21.388;2022-08-01T07:55:11;98392.66;;;32.26;28.13
42669;BME280;29384;42.028;21.388;2022-08-01T07:57:37;98387.28;;;32.08;27.92
42669;BME280;29384;42.028;21.388;2022-08-01T08:03:25;98382.63;;;32.23;27.35
42669;BME280;29384;42.028;21.388;2022-08-01T08:05:51;98387.75;;;31.93;27.76
42669;BME280;29384;42.028;21.388;2022-08-01T08:08:16;98391.19;;;32.04;27.78
42669;BME280;29384;42.028;21.388;2022-08-01T08:10:43;98384.19;;;32.17;28.58
42669;BME280;29384;42.028;21.388;2022-08-01T08:13:09;98390.75;;;32.20;27.59
42669;BME280;29384;42.028;21.388;2022-08-01T08:15:34;98386.84;;;32.28;27.65
42669;BME280;29384;42.028;21.388;2022-08-01T08:18:00;98370.56;;;32.35;28.59
42669;BME280;29384;42.028;21.388;2022-08-01T08:20:25;98384.94;;;32.18;28.25
42669;BME280;29384;42.028;21.388;2022-08-01T08:22:53;98380.31;;;32.14;27.63
42669;BME280;29384;42.028;21.388;2022-08-01T08:25:19;98381.88;;;32.12;29.02
42669;BME280;29384;42.028;21.388;2022-08-01T08:27:45;98382.59;;;32.27;28.71
42669;BME280;29384;42.028;21.388;2022-08-01T08:33:32;98382.78;;;32.65;28.12
42669;BME280;29384;42.028;21.388;2022-08-01T08:35:58;98372.56;;;32.24;26.56
42669;BME280;29384;42.028;21.388;2022-08-01T08:38:23;98383.38;;;32.24;25.43
42669;BME280;29384;42.028;21.388;2022-08-01T08:40:52;98379.44;;;32.35;25.67
42669;BME280;29384;42.028;21.388;2022-08-01T08:43:18;98386.78;;;32.46;25.56
42669;BME280;29384;42.028;21.388;2022-08-01T08:45:44;98376.78;;;32.28;26.56
42669;BME280;29384;42.028;21.388;2022-08-01T08:48:12;98377.13;;;32.37;26.25
42669;BME280;29384;42.028;21.388;2022-08-01T08:50:38;98373.72;;;32.26;26.37
42669;BME280;29384;42.028;21.388;2022-08-01T08:53:04;98372.53;;;32.27;27.40
42669;BME280;29384;42.028;21.388;2022-08-01T08:55:29;98364.09;;;32.11;27.44
42669;BME280;29384;42.028;21.388;2022-08-01T08:57:55;98368.66;;;32.28;26.78
42669;BME280;29384;42.028;21.388;2022-08-01T09:03:43;98365.13;;;32.46;26.18
42669;BME280;29384;42.028;21.388;2022-08-01T09:06:09;98354.75;;;32.30;26.70
42669;BME280;29384;42.028;21.388;2022-08-01T09:08:35;98351.25;;;32.29;26.04
42669;BME280;29384;42.028;21.388;2022-08-01T09:11:01;98353.56;;;32.42;24.74
42669;BME280;29384;42.028;21.388;2022-08-01T09:13:26;98352.44;;;32.25;24.53
42669;BME280;29384;42.028;21.388;2022-08-01T09:15:53;98347.03;;;32.25;25.76
42669;BME280;29384;42.028;21.388;2022-08-01T09:18:39;98342.44;;;32.18;25.84
42669;BME280;29384;42.028;21.388;2022-08-01T09:21:20;98344.25;;;32.39;25.68
42669;BME280;29384;42.028;21.388;2022-08-01T09:23:53;98344.97;;;32.50;26.15
42669;BME280;29384;42.028;21.388;2022-08-01T09:26:20;98336.91;;;32.43;26.71
42669;BME280;29384;42.028;21.388;2022-08-01T09:28:47;98340.81;;;32.35;24.69
42669;BME280;29384;42.028;21.388;2022-08-01T09:31:17;98337.81;;;32.15;26.01
42669;BME280;29384;42.028;21.388;2022-08-01T09:33:54;98335.88;;;32.16;25.31
42669;BME280;29384;42.028;21.388;2022-08-01T09:36:22;98325.91;;;32.02;26.61
42669;BME280;29384;42.028;21.388;2022-08-01T09:38:50;98334.00;;;32.09;26.74
42669;BME280;29384;42.028;21.388;2022-08-01T09:41:16;98330.03;;;32.24;26.44
42669;BME280;29384;42.028;21.388;2022-08-01T09:43:48;98334.22;;;32.32;26.70
42669;BME280;29384;42.028;21.388;2022-08-01T09:46:14;98327.66;;;32.44;25.49
42669;BME280;29384;42.028;21.388;2022-08-01T09:48:59;98334.19;;;32.40;26.08
42669;BME280;29384;42.028;21.388;2022-08-01T09:51:30;98317.25;;;32.28;25.93
42669;BME280;29384;42.028;21.388;2022-08-01T09:53:56;98324.19;;;32.33;25.59
42669;BME280;29384;42.028;21.388;2022-08-01T09:56:22;98315.72;;;32.27;25.84
42669;BME280;29384;42.028;21.388;2022-08-01T09:58:52;98327.41;;;32.10;24.34
42669;BME280;29384;42.028;21.388;2022-08-01T10:01:20;98316.94;;;32.16;27.54
42669;BME280;29384;42.028;21.388;2022-08-01T10:03:46;98328.16;;;32.14;25.89
42669;BME280;29384;42.028;21.388;2022-08-01T10:06:21;98320.06;;;32.07;26.55
42669;BME280;29384;42.028;21.388;2022-08-01T10:08:48;98311.22;;;32.03;27.21
42669;BME280;29384;42.028;21.388;2022-08-01T10:11:14;98299.66;;;31.95;29.77
42669;BME280;29384;42.028;21.388;2022-08-01T10:13:39;98307.72;;;32.09;27.98
42669;BME280;29384;42.028;21.388;2022-08-01T10:16:05;98259.09;;;31.95;25.98
42669;BME280;29384;42.028;21.388;2022-08-01T10:18:33;98299.13;;;32.22;26.23
42669;BME280;29384;42.028;21.388;2022-08-01T10:21:00;98303.81;;;32.14;26.49
42669;BME280;29384;42.028;21.388;2022-08-01T10:23:26;98304.63;;;32.07;25.62
42669;BME280;29384;42.028;21.388;2022-08-01T10:25:55;98306.22;;;31.94;26.65
42669;BME280;29384;42.028;21.388;2022-08-01T10:28:24;98298.50;;;31.93;26.84
42669;BME280;29384;42.028;21.388;2022-08-01T10:34:13;98293.88;;;31.93;27.25
42669;BME280;29384;42.028;21.388;2022-08-01T10:36:47;98290.41;;;31.89;26.68
42669;BME280;29384;42.028;21.388;2022-08-01T10:39:13;98286.09;;;32.06;28.91
42669;BME280;29384;42.028;21.388;2022-08-01T10:41:39;98280.25;;;32.11;27.22
42669;BME280;29384;42.028;21.388;2022-08-01T10:44:08;98282.63;;;32.02;29.92
42669;BME280;29384;42.028;21.388;2022-08-01T10:46:37;98279.06;;;32.12;27.62
42669;BME280;29384;42.028;21.388;2022-08-01T10:49:24;98275.97;;;32.17;27.40
42669;BME280;29384;42.028;21.388;2022-08-01T10:51:52;98266.78;;;32.04;28.99
42669;BME280;29384;42.028;21.388;2022-08-01T10:54:18;98272.66;;;31.92;27.51
42669;BME280;29384;42.028;21.388;2022-08-01T10:56:48;98268.41;;;31.76;27.84
42669;BME280;29384;42.028;21.388;2022-08-01T10:59:25;98266.56;;;31.59;27.07
42669;BME280;29384;42.028;21.388;2022-08-01T11:02:02;98261.19;;;31.48;25.64
42669;BME280;29384;42.028;21.388;2022-08-01T11:04:44;98242.31;;;31.30;30.70
42669;BME280;29384;42.028;21.388;2022-08-01T11:07:17;98249.66;;;31.26;32.23
42669;BME280;29384;42.028;21.388;2022-08-01T11:09:46;98249.63;;;31.48;28.18
42669;BME280;29384;42.028;21.388;2022-08-01T11:12:16;98242.69;;;31.47;28.30
42669;BME280;29384;42.028;21.388;2022-08-01T11:20:11;98241.06;;;31.67;27.11
42669;BME280;29384;42.028;21.388;2022-08-01T11:23:18;98236.06;;;31.55;27.50
42669;BME280;29384;42.028;21.388;2022-08-01T11:30:45;98229.19;;;31.39;28.25
42669;BME280;29384;42.028;21.388;2022-08-01T11:33:12;98229.59;;;31.41;28.22
42669;BME280;29384;42.028;21.388;2022-08-01T11:41:32;98219.13;;;31.43;26.98
42669;BME280;29384;42.028;21.388;2022-08-01T11:50:44;98205.66;;;31.29;27.46
42669;BME280;29384;42.028;21.388;2022-08-01T11:53:09;98201.03;;;31.33;29.75
42669;BME280;29384;42.028;21.388;2022-08-01T11:55:35;98204.53;;;31.16;30.46
42669;BME280;29384;42.028;21.388;2022-08-01T11:58:09;98201.81;;;31.23;28.35
42669;BME280;29384;42.028;21.388;2022-08-01T12:03:59;98187.16;;;31.31;28.86
42669;BME280;29384;42.028;21.388;2022-08-01T12:06:28;98186.00;;;31.22;30.58
42669;BME280;29384;42.028;21.388;2022-08-01T12:08:53;98185.97;;;31.36;30.75
42669;BME280;29384;42.028;21.388;2022-08-01T12:11:19;98186.34;;;31.41;28.63
42669;BME280;29384;42.028;21.388;2022-08-01T12:13:44;98181.72;;;31.42;28.70
42669;BME280;29384;42.028;21.388;2022-08-01T12:19:33;98167.78;;;31.43;29.00
42669;BME280;29384;42.028;21.388;2022-08-01T12:22:12;98173.94;;;31.48;28.78
42669;BME280;29384;42.028;21.388;2022-08-01T12:24:41;98173.56;;;31.49;27.34
42669;BME280;29384;42.028;21.388;2022-08-01T12:27:09;98173.22;;;31.40;28.00
42669;BME280;29384;42.028;21.388;2022-08-01T12:29:42;98174.41;;;31.25;28.34
42669;BME280;29384;42.028;21.388;2022-08-01T12:32:32;98172.13;;;31.16;27.40
42669;BME280;29384;42.028;21.388;2022-08-01T12:35:04;98174.47;;;31.10;26.42
42669;BME280;29384;42.028;21.388;2022-08-01T12:37:29;98177.47;;;31.37;26.56
42669;BME280;29384;42.028;21.388;2022-08-01T12:39:55;98170.13;;;31.31;26.33
42669;BME280;29384;42.028;21.388;2022-08-01T12:42:22;98172.91;;;31.13;27.67
42669;BME280;29384;42.028;21.388;2022-08-01T12:44:51;98168.69;;;31.05;27.76
42669;BME280;29384;42.028;21.388;2022-08-01T12:47:18;98157.91;;;31.01;27.42
42669;BME280;29384;42.028;21.388;2022-08-01T12:49:46;98152.53;;;30.87;29.68
42669;BME280;29384;42.028;21.388;2022-08-01T12:52:13;98152.53;;;30.83;29.34
42669;BME280;29384;42.028;21.388;2022-08-01T12:57:25;98158.31;;;30.92;28.40
42669;BME280;29384;42.028;21.388;2022-08-01T13:00:06;98149.88;;;30.58;30.38
42669;BME280;29384;42.028;21.388;2022-08-01T13:02:33;98142.97;;;30.39;27.78
42669;BME280;29384;42.028;21.388;2022-08-01T13:04:58;98147.56;;;30.21;28.23
42669;BME280;29384;42.028;21.388;2022-08-01T13:10:04;98135.19;;;30.66;30.12
42669;BME280;29384;42.028;21.388;2022-08-01T13:12:30;98135.94;;;30.88;28.29
42669;BME280;29384;42.028;21.388;2022-08-01T13:14:56;98137.88;;;30.88;29.35
42669;BME280;29384;42.028;21.388;2022-08-01T13:17:31;98129.78;;;30.84;29.27
42669;BME280;29384;42.028;21.388;2022-08-01T13:19:57;98133.25;;;30.88;28.99
42669;BME280;29384;42.028;21.388;2022-08-01T13:22:32;98135.94;;;30.95;27.85
42669;BME280;29384;42.028;21.388;2022-08-01T13:25:14;98132.88;;;30.86;29.11
42669;BME280;29384;42.028;21.388;2022-08-01T13:27:41;98135.94;;;30.70;29.75
42669;BME280;29384;42.028;21.388;2022-08-01T13:30:18;98121.72;;;30.63;31.14
42669;BME280;29384;42.028;21.388;2022-08-01T13:32:59;98119.41;;;30.68;31.05
42669;BME280;29384;42.028;21.388;2022-08-01T13:35:27;98114.38;;;30.70;29.28
42669;BME280;29384;42.028;21.388;2022-08-01T13:37:52;98119.00;;;30.84;28.06
42669;BME280;29384;42.028;21.388;2022-08-01T13:40:26;98118.22;;;30.80;28.56
42669;BME280;29384;42.028;21.388;2022-08-01T13:42:53;98119.00;;;30.73;29.63
42669;BME280;29384;42.028;21.388;2022-08-01T13:45:20;98115.53;;;30.73;29.32
42669;BME280;29384;42.028;21.388;2022-08-01T13:47:46;98111.66;;;30.81;27.77
42669;BME280;29384;42.028;21.388;2022-08-01T13:50:11;98117.47;;;30.83;28.16
42669;BME280;29384;42.028;21.388;2022-08-01T13:52:37;98114.34;;;30.74;28.32
42669;BME280;29384;42.028;21.388;2022-08-01T13:55:02;98116.69;;;30.79;29.55
42669;BME280;29384;42.028;21.388;2022-08-01T13:57:28;98113.22;;;30.86;26.71
42669;BME280;29384;42.028;21.388;2022-08-01T13:59:54;98119.75;;;30.81;27.89
42669;BME280;29384;42.028;21.388;2022-08-01T14:02:20;98110.16;;;30.77;26.97
42669;BME280;29384;42.028;21.388;2022-08-01T14:04:45;98106.28;;;30.60;25.75
42669;BME280;29384;42.028;21.388;2022-08-01T14:07:12;98112.09;;;30.55;25.01
42669;BME280;29384;42.028;21.388;2022-08-01T14:09:38;98099.78;;;30.43;27.37
42669;BME280;29384;42.028;21.388;2022-08-01T14:12:04;98100.16;;;30.45;26.89
42669;BME280;29384;42.028;21.388;2022-08-01T14:14:29;98099.00;;;30.49;26.24